sensor_id;sensor_type;location;lat;lon;timestamp;pressure;altitude;pressure_sealevel;temperature;humidity
72465;BME280;60471;52.150;4.508;2023-04-26T00:00:27;101715.31;;;7.51;63.03
72465;BME280;60471;52.150;4.508;2023-04-26T00:02:54;101726.44;;;7.62;62.62
72465;BME280;60471;52.150;4.508;2023-04-26T00:05:20;101723.00;;;7.60;62.32
72465;BME280;60471;52.150;4.508;2023-04-26T00:07:47;101718.66;;;7.57;62.52
72465;BME280;60471;52.150;4.508;2023-04-26T00:10:15;101723.09;;;7.54;62.79
72465;BME280;60471;52.150;4.508;2023-04-26T00:12:41;101716.84;;;7.61;63.06
72465;BME280;60471;52.150;4.508;2023-04-26T00:15:08;101713.28;;;7.64;63.00
72465;BME280;60471;52.150;4.508;2023-04-26T00:17:34;101718.59;;;7.61;62.89
72465;BME280;60471;52.150;4.508;2023-04-26T00:20:01;101715.75;;;7.71;62.25
72465;BME280;60471;52.150;4.508;2023-04-26T00:22:29;101715.69;;;7.73;62.50
72465;BME280;60471;52.150;4.508;2023-04-26T00:24:55;101715.50;;;7.80;62.53
72465;BME280;60471;52.150;4.508;2023-04-26T00:27:21;101713.78;;;7.79;62.67
72465;BME280;60471;52.150;4.508;2023-04-26T00:29:48;101711.03;;;7.85;62.58
72465;BME280;60471;52.150;4.508;2023-04-26T00:32:14;101714.63;;;7.81;62.86
72465;BME280;60471;52.150;4.508;2023-04-26T00:34:40;101719.06;;;7.78;63.18
72465;BME280;60471;52.150;4.508;2023-04-26T00:37:06;101718.22;;;7.77;63.01
72465;BME280;60471;52.150;4.508;2023-04-26T00:39:33;101715.66;;;7.74;62.96
72465;BME280;60471;52.150;4.508;2023-04-26T00:41:59;101720.81;;;7.79;63.01
72465;BME280;60471;52.150;4.508;2023-04-26T00:44:25;101719.47;;;7.60;63.00
72465;BME280;60471;52.150;4.508;2023-04-26T00:46:52;101715.84;;;7.65;62.63
72465;BME280;60471;52.150;4.508;2023-04-26T00:49:21;101716.84;;;7.61;62.77
72465;BME280;60471;52.150;4.508;2023-04-26T00:51:51;101714.16;;;7.63;63.13
72465;BME280;60471;52.150;4.508;2023-04-26T00:54:20;101720.28;;;7.63;63.07
72465;BME280;60471;52.150;4.508;2023-04-26T00:56:47;101710.69;;;7.62;63.07
72465;BME280;60471;52.150;4.508;2023-04-26T00:59:17;101718.66;;;7.57;62.43
72465;BME280;60471;52.150;4.508;2023-04-26T01:01:44;101715.34;;;7.49;62.75
72465;BME280;60471;52.150;4.508;2023-04-26T01:04:11;101718.06;;;7.43;62.53
72465;BME280;60471;52.150;4.508;2023-04-26T01:06:38;101709.44;;;7.38;62.68
72465;BME280;60471;52.150;4.508;2023-04-26T01:09:06;101714.94;;;7.24;62.60
72465;BME280;60471;52.150;4.508;2023-04-26T01:11:35;101718.25;;;7.34;62.39
72465;BME280;60471;52.150;4.508;2023-04-26T01:14:04;101716.00;;;7.16;62.33
72465;BME280;60471;52.150;4.508;2023-04-26T01:16:31;101715.19;;;7.12;62.64
72465;BME280;60471;52.150;4.508;2023-04-26T01:19:06;101703.91;;;7.09;62.97
72465;BME280;60471;52.150;4.508;2023-04-26T01:21:34;101711.84;;;7.04;63.06
72465;BME280;60471;52.150;4.508;2023-04-26T01:24:01;101712.81;;;7.00;63.53
72465;BME280;60471;52.150;4.508;2023-04-26T01:26:28;101720.66;;;7.02;63.58
72465;BME280;60471;52.150;4.508;2023-04-26T01:28:54;101718.09;;;6.98;63.79
72465;BME280;60471;52.150;4.508;2023-04-26T01:31:20;101716.41;;;6.96;64.09
72465;BME280;60471;52.150;4.508;2023-04-26T01:33:47;101708.63;;;6.90;64.53
72465;BME280;60471;52.150;4.508;2023-04-26T01:36:13;101714.19;;;6.75;64.32
72465;BME280;60471;52.150;4.508;2023-04-26T01:38:39;101720.47;;;6.64;65.57
72465;BME280;60471;52.150;4.508;2023-04-26T01:41:05;101721.28;;;6.68;64.97
72465;BME280;60471;52.150;4.508;2023-04-26T01:43:31;101714.88;;;6.84;64.40
72465;BME280;60471;52.150;4.508;2023-04-26T01:45:58;101720.25;;;6.77;64.35
72465;BME280;60471;52.150;4.508;2023-04-26T01:48:24;101712.59;;;6.64;64.98
72465;BME280;60471;52.150;4.508;2023-04-26T01:50:50;101711.78;;;6.61;65.49
72465;BME280;60471;52.150;4.508;2023-04-26T01:53:16;101708.28;;;6.60;65.91
72465;BME280;60471;52.150;4.508;2023-04-26T01:55:42;101713.75;;;6.48;66.00
72465;BME280;60471;52.150;4.508;2023-04-26T01:58:09;101715.22;;;6.64;65.12
72465;BME280;60471;52.150;4.508;2023-04-26T02:00:35;101712.56;;;6.66;65.64
72465;BME280;60471;52.150;4.508;2023-04-26T02:03:01;101708.72;;;6.85;64.71
72465;BME280;60471;52.150;4.508;2023-04-26T02:05:27;101718.19;;;6.92;64.00
72465;BME280;60471;52.150;4.508;2023-04-26T02:07:53;101719.47;;;6.70;64.59
72465;BME280;60471;52.150;4.508;2023-04-26T02:10:20;101708.19;;;6.66;65.00
72465;BME280;60471;52.150;4.508;2023-04-26T02:12:46;101718.56;;;6.73;64.88
72465;BME280;60471;52.150;4.508;2023-04-26T02:15:12;101717.81;;;6.66;65.33
72465;BME280;60471;52.150;4.508;2023-04-26T02:17:39;101712.38;;;6.77;64.86
72465;BME280;60471;52.150;4.508;2023-04-26T02:20:06;101710.56;;;6.80;64.86
72465;BME280;60471;52.150;4.508;2023-04-26T02:22:35;101709.16;;;6.62;65.30
72465;BME280;60471;52.150;4.508;2023-04-26T02:25:01;101707.28;;;6.67;65.61
72465;BME280;60471;52.150;4.508;2023-04-26T02:27:28;101711.84;;;6.58;65.77
72465;BME280;60471;52.150;4.508;2023-04-26T02:29:54;101715.66;;;6.38;65.84
72465;BME280;60471;52.150;4.508;2023-04-26T02:32:20;101715.13;;;6.17;66.32
72465;BME280;60471;52.150;4.508;2023-04-26T02:34:46;101717.94;;;6.04;67.58
72465;BME280;60471;52.150;4.508;2023-04-26T02:37:12;101717.28;;;5.92;68.65
72465;BME280;60471;52.150;4.508;2023-04-26T02:39:39;101705.84;;;5.96;69.40
72465;BME280;60471;52.150;4.508;2023-04-26T02:42:11;101715.53;;;5.91;69.70
72465;BME280;60471;52.150;4.508;2023-04-26T02:44:37;101708.47;;;5.97;69.89
72465;BME280;60471;52.150;4.508;2023-04-26T02:47:04;101704.13;;;5.93;70.46
72465;BME280;60471;52.150;4.508;2023-04-26T02:49:30;101703.09;;;6.05;70.56
72465;BME280;60471;52.150;4.508;2023-04-26T02:51:56;101702.06;;;6.15;70.27
72465;BME280;60471;52.150;4.508;2023-04-26T02:54:22;101700.13;;;6.26;69.13
72465;BME280;60471;52.150;4.508;2023-04-26T02:56:49;101702.88;;;6.20;69.33
72465;BME280;60471;52.150;4.508;2023-04-26T02:59:15;101701.13;;;6.19;69.25
72465;BME280;60471;52.150;4.508;2023-04-26T03:01:41;101697.78;;;6.09;69.45
72465;BME280;60471;52.150;4.508;2023-04-26T03:04:08;101699.78;;;5.92;70.55
72465;BME280;60471;52.150;4.508;2023-04-26T03:06:34;101696.16;;;6.02;71.35
72465;BME280;60471;52.150;4.508;2023-04-26T03:09:00;101698.00;;;5.94;71.35
72465;BME280;60471;52.150;4.508;2023-04-26T03:11:26;101694.69;;;5.81;72.54
72465;BME280;60471;52.150;4.508;2023-04-26T03:13:53;101703.41;;;5.82;72.84
72465;BME280;60471;52.150;4.508;2023-04-26T03:16:19;101703.47;;;5.77;73.58
72465;BME280;60471;52.150;4.508;2023-04-26T03:18:46;101698.09;;;5.85;73.16
72465;BME280;60471;52.150;4.508;2023-04-26T03:21:12;101696.03;;;6.10;72.56
72465;BME280;60471;52.150;4.508;2023-04-26T03:23:38;101695.88;;;6.21;71.99
72465;BME280;60471;52.150;4.508;2023-04-26T03:26:04;101693.03;;;6.33;71.18
72465;BME280;60471;52.150;4.508;2023-04-26T03:28:30;101695.53;;;6.39;70.62
72465;BME280;60471;52.150;4.508;2023-04-26T03:30:57;101695.84;;;6.72;68.48
72465;BME280;60471;52.150;4.508;2023-04-26T03:33:24;101692.19;;;6.80;67.03
72465;BME280;60471;52.150;4.508;2023-04-26T03:35:50;101697.19;;;6.94;66.26
72465;BME280;60471;52.150;4.508;2023-04-26T03:38:16;101692.69;;;7.01;65.03
72465;BME280;60471;52.150;4.508;2023-04-26T03:40:43;101689.78;;;7.14;63.60
72465;BME280;60471;52.150;4.508;2023-04-26T03:43:09;101688.38;;;6.98;63.26
72465;BME280;60471;52.150;4.508;2023-04-26T03:45:35;101686.88;;;6.85;63.97
72465;BME280;60471;52.150;4.508;2023-04-26T03:48:02;101680.81;;;6.81;64.32
72465;BME280;60471;52.150;4.508;2023-04-26T03:50:28;101685.13;;;6.85;65.07
72465;BME280;60471;52.150;4.508;2023-04-26T03:52:54;101678.31;;;6.75;65.67
72465;BME280;60471;52.150;4.508;2023-04-26T03:55:21;101667.88;;;6.74;66.33
72465;BME280;60471;52.150;4.508;2023-04-26T03:57:47;101666.31;;;6.62;66.96
72465;BME280;60471;52.150;4.508;2023-04-26T04:00:13;101671.34;;;6.74;66.76
72465;BME280;60471;52.150;4.508;2023-04-26T04:02:40;101674.91;;;6.70;67.74
72465;BME280;60471;52.150;4.508;2023-04-26T04:05:07;101673.56;;;6.48;68.54
72465;BME280;60471;52.150;4.508;2023-04-26T04:07:34;101665.69;;;6.48;69.04
72465;BME280;60471;52.150;4.508;2023-04-26T04:10:00;101668.25;;;6.52;68.86
72465;BME280;60471;52.150;4.508;2023-04-26T04:12:26;101673.63;;;6.45;68.48
72465;BME280;60471;52.150;4.508;2023-04-26T04:14:52;101677.22;;;6.37;69.05
72465;BME280;60471;52.150;4.508;2023-04-26T04:17:19;101673.91;;;6.28;69.34
72465;BME280;60471;52.150;4.508;2023-04-26T04:19:45;101680.81;;;6.33;68.73
72465;BME280;60471;52.150;4.508;2023-04-26T04:22:11;101678.75;;;6.51;68.70
72465;BME280;60471;52.150;4.508;2023-04-26T04:24:37;101681.44;;;6.48;69.06
72465;BME280;60471;52.150;4.508;2023-04-26T04:27:04;101686.69;;;6.46;68.30
72465;BME280;60471;52.150;4.508;2023-04-26T04:29:30;101680.50;;;6.50;68.15
72465;BME280;60471;52.150;4.508;2023-04-26T04:31:57;101684.94;;;6.47;67.65
72465;BME280;60471;52.150;4.508;2023-04-26T04:34:23;101681.56;;;6.42;67.56
72465;BME280;60471;52.150;4.508;2023-04-26T04:36:50;101679.44;;;6.60;66.59
72465;BME280;60471;52.150;4.508;2023-04-26T04:39:17;101681.81;;;6.76;65.32
72465;BME280;60471;52.150;4.508;2023-04-26T04:41:43;101681.72;;;6.80;64.79
72465;BME280;60471;52.150;4.508;2023-04-26T04:44:17;101690.44;;;6.81;64.52
72465;BME280;60471;52.150;4.508;2023-04-26T04:46:43;101692.16;;;6.82;64.34
72465;BME280;60471;52.150;4.508;2023-04-26T04:49:10;101695.63;;;6.85;63.72
72465;BME280;60471;52.150;4.508;2023-04-26T04:51:38;101694.06;;;6.75;63.28
72465;BME280;60471;52.150;4.508;2023-04-26T04:54:15;101695.47;;;6.91;63.78
72465;BME280;60471;52.150;4.508;2023-04-26T04:56:43;101699.81;;;6.95;62.92
72465;BME280;60471;52.150;4.508;2023-04-26T04:59:10;101691.69;;;7.08;62.23
72465;BME280;60471;52.150;4.508;2023-04-26T05:01:37;101690.00;;;7.04;63.67
72465;BME280;60471;52.150;4.508;2023-04-26T05:04:04;101692.41;;;7.14;64.98
72465;BME280;60471;52.150;4.508;2023-04-26T05:06:31;101691.38;;;7.23;65.74
72465;BME280;60471;52.150;4.508;2023-04-26T05:08:58;101701.59;;;7.35;66.34
72465;BME280;60471;52.150;4.508;2023-04-26T05:11:24;101702.06;;;7.12;66.92
72465;BME280;60471;52.150;4.508;2023-04-26T05:13:51;101691.19;;;7.32;67.60
72465;BME280;60471;52.150;4.508;2023-04-26T05:16:17;101687.34;;;7.47;67.67
72465;BME280;60471;52.150;4.508;2023-04-26T05:18:43;101685.25;;;7.64;67.01
72465;BME280;60471;52.150;4.508;2023-04-26T05:21:09;101690.22;;;7.76;66.03
72465;BME280;60471;52.150;4.508;2023-04-26T05:23:36;101689.13;;;7.87;64.48
72465;BME280;60471;52.150;4.508;2023-04-26T05:26:03;101682.59;;;8.03;63.79
72465;BME280;60471;52.150;4.508;2023-04-26T05:28:30;101683.81;;;8.25;64.07
72465;BME280;60471;52.150;4.508;2023-04-26T05:30:57;101690.47;;;8.40;63.59
72465;BME280;60471;52.150;4.508;2023-04-26T05:33:24;101695.34;;;8.55;63.23
72465;BME280;60471;52.150;4.508;2023-04-26T05:35:50;101686.34;;;8.64;63.44
72465;BME280;60471;52.150;4.508;2023-04-26T05:38:19;101692.56;;;8.26;63.01
72465;BME280;60471;52.150;4.508;2023-04-26T05:40:46;101693.94;;;8.42;63.26
72465;BME280;60471;52.150;4.508;2023-04-26T05:43:13;101699.63;;;8.59;62.73
72465;BME280;60471;52.150;4.508;2023-04-26T05:45:52;101700.81;;;8.82;64.79
72465;BME280;60471;52.150;4.508;2023-04-26T05:48:23;101705.78;;;8.92;63.30
72465;BME280;60471;52.150;4.508;2023-04-26T05:50:50;101706.59;;;8.94;62.70
72465;BME280;60471;52.150;4.508;2023-04-26T05:53:18;101702.59;;;9.12;61.65
72465;BME280;60471;52.150;4.508;2023-04-26T05:55:44;101699.78;;;9.18;61.31
72465;BME280;60471;52.150;4.508;2023-04-26T05:58:11;101702.50;;;9.15;62.02
72465;BME280;60471;52.150;4.508;2023-04-26T06:00:37;101705.56;;;9.31;61.75
72465;BME280;60471;52.150;4.508;2023-04-26T06:03:04;101710.75;;;9.34;60.83
72465;BME280;60471;52.150;4.508;2023-04-26T06:05:30;101714.97;;;9.09;60.80
72465;BME280;60471;52.150;4.508;2023-04-26T06:07:57;101713.34;;;8.72;60.43
72465;BME280;60471;52.150;4.508;2023-04-26T06:10:23;101719.41;;;8.74;60.89
72465;BME280;60471;52.150;4.508;2023-04-26T06:12:50;101722.44;;;8.93;60.41
72465;BME280;60471;52.150;4.508;2023-04-26T06:15:16;101724.44;;;9.16;59.25
72465;BME280;60471;52.150;4.508;2023-04-26T06:17:42;101717.81;;;9.32;58.23
72465;BME280;60471;52.150;4.508;2023-04-26T06:20:09;101725.19;;;9.19;57.58
72465;BME280;60471;52.150;4.508;2023-04-26T06:22:36;101734.09;;;9.15;58.57
72465;BME280;60471;52.150;4.508;2023-04-26T06:25:06;101736.78;;;9.14;59.06
72465;BME280;60471;52.150;4.508;2023-04-26T06:27:32;101735.25;;;9.05;58.62
72465;BME280;60471;52.150;4.508;2023-04-26T06:29:59;101745.00;;;9.02;59.30
72465;BME280;60471;52.150;4.508;2023-04-26T06:32:25;101736.81;;;9.12;59.09
72465;BME280;60471;52.150;4.508;2023-04-26T06:34:52;101746.31;;;8.85;59.98
72465;BME280;60471;52.150;4.508;2023-04-26T06:37:18;101750.13;;;8.74;59.98
72465;BME280;60471;52.150;4.508;2023-04-26T06:39:44;101748.94;;;8.51;60.17
72465;BME280;60471;52.150;4.508;2023-04-26T06:42:10;101751.16;;;8.66;60.54
72465;BME280;60471;52.150;4.508;2023-04-26T06:44:36;101755.53;;;8.30;61.30
72465;BME280;60471;52.150;4.508;2023-04-26T06:47:03;101748.00;;;8.54;61.44
72465;BME280;60471;52.150;4.508;2023-04-26T06:49:29;101745.44;;;8.51;61.56
72465;BME280;60471;52.150;4.508;2023-04-26T06:51:55;101746.44;;;8.45;61.41
72465;BME280;60471;52.150;4.508;2023-04-26T06:54:27;101742.56;;;8.23;61.51
72465;BME280;60471;52.150;4.508;2023-04-26T06:56:54;101742.31;;;7.96;62.63
72465;BME280;60471;52.150;4.508;2023-04-26T06:59:21;101737.34;;;7.84;62.35
72465;BME280;60471;52.150;4.508;2023-04-26T07:01:47;101737.91;;;7.98;62.75
72465;BME280;60471;52.150;4.508;2023-04-26T07:04:13;101742.97;;;8.06;61.68
72465;BME280;60471;52.150;4.508;2023-04-26T07:06:41;101744.59;;;8.11;62.21
72465;BME280;60471;52.150;4.508;2023-04-26T07:09:07;101735.41;;;8.29;62.41
72465;BME280;60471;52.150;4.508;2023-04-26T07:11:34;101732.16;;;8.55;59.56
72465;BME280;60471;52.150;4.508;2023-04-26T07:14:00;101738.69;;;9.07;58.97
72465;BME280;60471;52.150;4.508;2023-04-26T07:16:26;101744.13;;;9.34;58.91
72465;BME280;60471;52.150;4.508;2023-04-26T07:18:53;101739.34;;;9.77;57.56
72465;BME280;60471;52.150;4.508;2023-04-26T07:21:23;101746.63;;;9.97;57.26
72465;BME280;60471;52.150;4.508;2023-04-26T07:23:54;101749.56;;;9.86;56.31
72465;BME280;60471;52.150;4.508;2023-04-26T07:26:22;101751.72;;;9.44;56.09
72465;BME280;60471;52.150;4.508;2023-04-26T07:28:51;101754.66;;;9.34;55.31
72465;BME280;60471;52.150;4.508;2023-04-26T07:31:18;101749.75;;;9.20;57.05
72465;BME280;60471;52.150;4.508;2023-04-26T07:33:45;101742.75;;;9.19;57.88
72465;BME280;60471;52.150;4.508;2023-04-26T07:36:11;101745.00;;;9.34;57.73
72465;BME280;60471;52.150;4.508;2023-04-26T07:38:37;101750.81;;;9.14;57.73
72465;BME280;60471;52.150;4.508;2023-04-26T07:41:04;101752.44;;;9.49;57.15
72465;BME280;60471;52.150;4.508;2023-04-26T07:43:30;101755.22;;;9.74;56.70
72465;BME280;60471;52.150;4.508;2023-04-26T07:46:00;101754.50;;;9.99;55.38
72465;BME280;60471;52.150;4.508;2023-04-26T07:48:29;101752.72;;;9.99;55.40
72465;BME280;60471;52.150;4.508;2023-04-26T07:50:55;101756.44;;;9.92;56.34
72465;BME280;60471;52.150;4.508;2023-04-26T07:53:22;101755.56;;;10.21;56.02
72465;BME280;60471;52.150;4.508;2023-04-26T07:55:51;101755.50;;;10.77;53.72
72465;BME280;60471;52.150;4.508;2023-04-26T07:58:17;101756.31;;;10.79;53.43
72465;BME280;60471;52.150;4.508;2023-04-26T08:00:44;101757.84;;;10.60;53.08
72465;BME280;60471;52.150;4.508;2023-04-26T08:03:13;101760.19;;;10.41;54.08
72465;BME280;60471;52.150;4.508;2023-04-26T08:05:41;101760.81;;;10.49;53.77
72465;BME280;60471;52.150;4.508;2023-04-26T08:08:08;101760.84;;;10.20;54.08
72465;BME280;60471;52.150;4.508;2023-04-26T08:10:34;101764.59;;;10.42;53.46
72465;BME280;60471;52.150;4.508;2023-04-26T08:13:00;101769.13;;;10.65;53.16
72465;BME280;60471;52.150;4.508;2023-04-26T08:15:28;101767.25;;;10.93;51.61
72465;BME280;60471;52.150;4.508;2023-04-26T08:17:54;101764.28;;;11.27;49.57
72465;BME280;60471;52.150;4.508;2023-04-26T08:20:20;101757.41;;;11.94;48.01
72465;BME280;60471;52.150;4.508;2023-04-26T08:22:47;101761.84;;;11.46;49.29
72465;BME280;60471;52.150;4.508;2023-04-26T08:25:14;101755.09;;;11.38;48.91
72465;BME280;60471;52.150;4.508;2023-04-26T08:27:40;101760.97;;;11.69;46.59
72465;BME280;60471;52.150;4.508;2023-04-26T08:30:07;101759.22;;;12.15;44.12
72465;BME280;60471;52.150;4.508;2023-04-26T08:32:33;101758.03;;;12.66;42.72
72465;BME280;60471;52.150;4.508;2023-04-26T08:35:00;101751.22;;;13.01;40.60
72465;BME280;60471;52.150;4.508;2023-04-26T08:37:27;101755.56;;;12.83;42.16
72465;BME280;60471;52.150;4.508;2023-04-26T08:39:53;101750.34;;;12.80;42.10
72465;BME280;60471;52.150;4.508;2023-04-26T08:42:22;101753.94;;;12.79;42.11
72465;BME280;60471;52.150;4.508;2023-04-26T08:44:52;101754.94;;;12.97;41.58
72465;BME280;60471;52.150;4.508;2023-04-26T08:47:28;101746.16;;;12.54;42.07
72465;BME280;60471;52.150;4.508;2023-04-26T08:50:04;101751.47;;;12.10;43.28
72465;BME280;60471;52.150;4.508;2023-04-26T08:52:34;101767.72;;;11.54;43.85
72465;BME280;60471;52.150;4.508;2023-04-26T08:55:01;101761.09;;;11.43;45.29
72465;BME280;60471;52.150;4.508;2023-04-26T08:57:31;101759.97;;;11.73;44.68
72465;BME280;60471;52.150;4.508;2023-04-26T08:59:58;101766.44;;;11.41;44.60
72465;BME280;60471;52.150;4.508;2023-04-26T09:02:26;101763.00;;;10.89;45.60
72465;BME280;60471;52.150;4.508;2023-04-26T09:04:53;101763.31;;;11.30;45.06
72465;BME280;60471;52.150;4.508;2023-04-26T09:07:20;101763.50;;;11.49;45.28
72465;BME280;60471;52.150;4.508;2023-04-26T09:09:57;101769.28;;;12.07;43.93
72465;BME280;60471;52.150;4.508;2023-04-26T09:12:24;101759.59;;;12.50;41.85
72465;BME280;60471;52.150;4.508;2023-04-26T09:14:51;101759.59;;;12.71;40.96
72465;BME280;60471;52.150;4.508;2023-04-26T09:17:34;101760.28;;;12.33;41.85
72465;BME280;60471;52.150;4.508;2023-04-26T09:23:07;101754.19;;;12.53;42.03
72465;BME280;60471;52.150;4.508;2023-04-26T09:25:36;101758.03;;;12.66;41.26
72465;BME280;60471;52.150;4.508;2023-04-26T09:28:04;101752.22;;;12.36;41.98
72465;BME280;60471;52.150;4.508;2023-04-26T09:30:45;101757.50;;;12.78;41.99
72465;BME280;60471;52.150;4.508;2023-04-26T09:33:11;101757.56;;;13.58;40.78
72465;BME280;60471;52.150;4.508;2023-04-26T09:35:39;101753.47;;;13.88;39.84
72465;BME280;60471;52.150;4.508;2023-04-26T09:38:16;101756.19;;;14.25;38.75
72465;BME280;60471;52.150;4.508;2023-04-26T09:40:47;101750.19;;;15.09;36.72
72465;BME280;60471;52.150;4.508;2023-04-26T09:43:19;101749.81;;;14.99;36.21
72465;BME280;60471;52.150;4.508;2023-04-26T09:45:57;101749.38;;;15.24;37.14
72465;BME280;60471;52.150;4.508;2023-04-26T09:48:26;101744.81;;;15.26;36.94
72465;BME280;60471;52.150;4.508;2023-04-26T09:53:37;101734.84;;;14.97;37.70
72465;BME280;60471;52.150;4.508;2023-04-26T09:56:15;101733.25;;;15.60;37.37
72465;BME280;60471;52.150;4.508;2023-04-26T10:01:14;101734.91;;;16.26;34.39
72465;BME280;60471;52.150;4.508;2023-04-26T10:03:43;101740.41;;;15.91;33.65
72465;BME280;60471;52.150;4.508;2023-04-26T10:06:11;101737.84;;;15.90;33.73
72465;BME280;60471;52.150;4.508;2023-04-26T10:08:38;101733.69;;;15.84;34.58
72465;BME280;60471;52.150;4.508;2023-04-26T10:11:05;101726.78;;;15.98;34.64
72465;BME280;60471;52.150;4.508;2023-04-26T10:13:38;101732.34;;;15.77;33.01
72465;BME280;60471;52.150;4.508;2023-04-26T10:16:09;101733.31;;;15.59;33.74
72465;BME280;60471;52.150;4.508;2023-04-26T10:18:35;101732.00;;;15.34;33.07
72465;BME280;60471;52.150;4.508;2023-04-26T10:21:09;101735.88;;;14.94;34.10
72465;BME280;60471;52.150;4.508;2023-04-26T10:23:40;101737.78;;;15.25;33.70
72465;BME280;60471;52.150;4.508;2023-04-26T10:26:45;101743.81;;;15.62;31.79
72465;BME280;60471;52.150;4.508;2023-04-26T10:29:20;101729.72;;;16.39;32.08
72465;BME280;60471;52.150;4.508;2023-04-26T10:34:27;101737.19;;;16.48;30.92
72465;BME280;60471;52.150;4.508;2023-04-26T10:37:06;101728.97;;;17.96;30.05
72465;BME280;60471;52.150;4.508;2023-04-26T10:39:33;101724.06;;;17.76;30.43
72465;BME280;60471;52.150;4.508;2023-04-26T10:42:17;101728.44;;;17.91;29.60
72465;BME280;60471;52.150;4.508;2023-04-26T10:44:49;101725.09;;;17.31;32.10
72465;BME280;60471;52.150;4.508;2023-04-26T10:47:30;101735.28;;;17.95;31.52
72465;BME280;60471;52.150;4.508;2023-04-26T10:50:09;101732.94;;;16.14;35.03
72465;BME280;60471;52.150;4.508;2023-04-26T10:52:39;101725.81;;;16.14;34.22
72465;BME280;60471;52.150;4.508;2023-04-26T10:55:41;101719.19;;;18.10;32.08
72465;BME280;60471;52.150;4.508;2023-04-26T10:58:33;101717.34;;;19.91;28.09
72465;BME280;60471;52.150;4.508;2023-04-26T11:01:18;101715.50;;;20.99;26.43
72465;BME280;60471;52.150;4.508;2023-04-26T11:06:22;101713.56;;;18.68;28.93
72465;BME280;60471;52.150;4.508;2023-04-26T11:08:49;101717.53;;;19.26;28.82
72465;BME280;60471;52.150;4.508;2023-04-26T11:11:16;101709.63;;;19.12;27.89
72465;BME280;60471;52.150;4.508;2023-04-26T11:13:46;101711.97;;;18.91;29.39
72465;BME280;60471;52.150;4.508;2023-04-26T11:16:14;101715.72;;;19.14;27.64
72465;BME280;60471;52.150;4.508;2023-04-26T11:18:43;101710.88;;;19.94;26.24
72465;BME280;60471;52.150;4.508;2023-04-26T11:21:11;101702.63;;;19.97;26.00
72465;BME280;60471;52.150;4.508;2023-04-26T11:23:42;101703.84;;;18.80;29.58
72465;BME280;60471;52.150;4.508;2023-04-26T11:26:18;101700.97;;;17.75;31.30
72465;BME280;60471;52.150;4.508;2023-04-26T11:28:44;101701.09;;;17.31;31.18
72465;BME280;60471;52.150;4.508;2023-04-26T11:31:11;101701.00;;;16.44;32.14
72465;BME280;60471;52.150;4.508;2023-04-26T11:33:40;101699.38;;;17.44;30.74
72465;BME280;60471;52.150;4.508;2023-04-26T11:36:06;101694.19;;;18.77;29.35
72465;BME280;60471;52.150;4.508;2023-04-26T11:38:33;101697.78;;;19.78;28.10
72465;BME280;60471;52.150;4.508;2023-04-26T11:41:01;101691.09;;;21.80;25.37
72465;BME280;60471;52.150;4.508;2023-04-26T11:43:35;101687.25;;;22.90;24.63
72465;BME280;60471;52.150;4.508;2023-04-26T11:46:03;101687.63;;;23.06;22.95
72465;BME280;60471;52.150;4.508;2023-04-26T11:48:33;101686.56;;;23.49;22.96
72465;BME280;60471;52.150;4.508;2023-04-26T11:51:02;101692.88;;;23.69;23.06
72465;BME280;60471;52.150;4.508;2023-04-26T11:53:37;101689.59;;;24.44;21.29
72465;BME280;60471;52.150;4.508;2023-04-26T11:56:19;101692.19;;;21.89;23.88
72465;BME280;60471;52.150;4.508;2023-04-26T11:58:47;101699.84;;;20.22;26.43
72465;BME280;60471;52.150;4.508;2023-04-26T12:01:25;101703.19;;;19.15;26.81
72465;BME280;60471;52.150;4.508;2023-04-26T12:03:55;101699.63;;;20.84;25.16
72465;BME280;60471;52.150;4.508;2023-04-26T12:09:00;101699.75;;;22.91;23.20
72465;BME280;60471;52.150;4.508;2023-04-26T12:11:30;101693.06;;;21.22;26.01
72465;BME280;60471;52.150;4.508;2023-04-26T12:13:57;101692.72;;;21.60;25.52
72465;BME280;60471;52.150;4.508;2023-04-26T12:16:24;101699.41;;;22.32;25.09
72465;BME280;60471;52.150;4.508;2023-04-26T12:18:50;101701.44;;;23.13;23.75
72465;BME280;60471;52.150;4.508;2023-04-26T12:21:18;101703.63;;;22.66;22.47
72465;BME280;60471;52.150;4.508;2023-04-26T12:23:45;101701.50;;;20.71;24.45
72465;BME280;60471;52.150;4.508;2023-04-26T12:26:14;101698.72;;;21.41;23.90
72465;BME280;60471;52.150;4.508;2023-04-26T12:28:41;101705.19;;;23.62;23.08
72465;BME280;60471;52.150;4.508;2023-04-26T12:31:07;101699.44;;;23.86;22.38
72465;BME280;60471;52.150;4.508;2023-04-26T12:33:34;101701.34;;;24.63;21.17
72465;BME280;60471;52.150;4.508;2023-04-26T12:36:11;101698.16;;;24.96;20.53
72465;BME280;60471;52.150;4.508;2023-04-26T12:38:38;101687.84;;;24.14;20.58
72465;BME280;60471;52.150;4.508;2023-04-26T12:41:05;101690.31;;;24.37;20.83
72465;BME280;60471;52.150;4.508;2023-04-26T12:43:31;101697.41;;;24.47;21.09
72465;BME280;60471;52.150;4.508;2023-04-26T12:45:58;101692.81;;;24.86;20.17
72465;BME280;60471;52.150;4.508;2023-04-26T12:48:25;101695.53;;;25.33;20.78
72465;BME280;60471;52.150;4.508;2023-04-26T12:50:51;101696.03;;;26.01;19.63
72465;BME280;60471;52.150;4.508;2023-04-26T12:53:17;101694.34;;;26.72;18.67
72465;BME280;60471;52.150;4.508;2023-04-26T12:55:44;101697.28;;;25.25;20.10
72465;BME280;60471;52.150;4.508;2023-04-26T12:58:10;101697.19;;;26.35;18.49
72465;BME280;60471;52.150;4.508;2023-04-26T13:00:36;101697.69;;;26.30;18.64
72465;BME280;60471;52.150;4.508;2023-04-26T13:03:03;101695.72;;;27.62;16.76
72465;BME280;60471;52.150;4.508;2023-04-26T13:05:29;101699.81;;;28.65;15.26
72465;BME280;60471;52.150;4.508;2023-04-26T13:07:57;101698.47;;;28.61;15.71
72465;BME280;60471;52.150;4.508;2023-04-26T13:10:25;101699.28;;;27.62;16.06
72465;BME280;60471;52.150;4.508;2023-04-26T13:12:51;101706.91;;;24.42;20.26
72465;BME280;60471;52.150;4.508;2023-04-26T13:15:18;101699.09;;;24.58;20.89